Time;durP1;ratioP1;P1;durP2;ratioP2;P2;SDS_P1;SDS_P2;PMS_P1;PMS_P2;Temp;Humidity;BMP_temperature;BMP_pressure;BME280_temperature;BME280_humidity;BME280_pressure;Samples;Min_cycle;Max_cycle;Signal;HPM_P1;HPM_P2
2023/07/17 00:00:15;;;;;;;;;4.00;3.25;;;;;22.28;37.66;101307.81;5070080;28;45408;-64
2023/07/17 00:02:42;;;;;;;;;2.25;1.75;;;;;22.28;37.88;101315.00;5061866;28;45481;-64
2023/07/17 00:05:09;;;;;;;;;3.25;2.00;;;;;22.26;37.91;101315.06;5060686;28;45418;-64
2023/07/17 00:07:35;;;;;;;;;4.25;3.25;;;;;22.27;37.68;101318.63;5061882;28;46661;-65
2023/07/17 00:10:00;;;;;;;;;4.75;3.50;;;;;22.24;38.07;101320.50;5068395;28;45428;-64
2023/07/17 00:12:26;;;;;;;;;2.75;1.25;;;;;22.21;37.66;101320.69;5080072;28;45448;-65
2023/07/17 00:14:51;;;;;;;;;3.75;2.00;;;;;22.22;37.99;101326.88;5082294;28;45235;-65
2023/07/17 00:17:17;;;;;;;;;3.00;3.00;;;;;22.21;37.66;101322.47;5081967;28;45229;-65
2023/07/17 00:19:52;;;;;;;;;2.00;2.00;;;;;22.14;37.57;101319.28;5081968;28;45282;-65
2023/07/17 00:22:18;;;;;;;;;3.25;2.00;;;;;22.15;37.72;101312.09;5082035;28;45294;-65
2023/07/17 00:24:43;;;;;;;;;3.75;2.75;;;;;22.11;37.97;101313.22;5080607;28;45257;-65
2023/07/17 00:27:09;;;;;;;;;3.50;2.00;;;;;22.10;38.17;101317.72;5080681;27;47830;-66
2023/07/17 00:29:34;;;;;;;;;2.75;2.75;;;;;22.05;37.83;101303.72;5081827;28;45331;-65
2023/07/17 00:32:00;;;;;;;;;3.00;2.00;;;;;22.06;37.97;101322.38;5081973;28;45483;-64
2023/07/17 00:34:25;;;;;;;;;0.25;0.25;;;;;22.09;38.22;101315.97;5081890;28;45324;-64
2023/07/17 00:36:50;;;;;;;;;4.00;3.00;;;;;21.99;38.17;101312.94;5081539;27;45362;-64
2023/07/17 00:39:18;;;;;;;;;4.00;3.50;;;;;22.05;37.75;101323.31;5080314;28;45502;-64
2023/07/17 00:41:44;;;;;;;;;5.00;3.00;;;;;22.03;38.06;101319.84;5081934;28;45453;-65
2023/07/17 00:44:10;;;;;;;;;4.75;3.25;;;;;22.01;37.82;101308.38;5081672;28;45490;-64
2023/07/17 00:46:36;;;;;;;;;4.50;3.00;;;;;22.01;37.77;101329.78;5079991;28;47623;-65
2023/07/17 00:49:03;;;;;;;;;6.00;4.00;;;;;22.00;38.31;101324.47;5079124;28;45284;-65
2023/07/17 00:51:29;;;;;;;;;3.00;3.00;;;;;21.99;38.58;101322.78;5082121;28;45526;-65
2023/07/17 00:53:55;;;;;;;;;3.00;3.00;;;;;21.97;38.17;101328.19;5080120;28;45427;-65
2023/07/17 00:56:21;;;;;;;;;3.50;2.25;;;;;21.94;38.47;101324.81;5080022;28;47079;-65
2023/07/17 00:58:46;;;;;;;;;3.00;3.00;;;;;21.92;38.15;101320.44;5081313;28;45257;-65
2023/07/17 01:01:12;;;;;;;;;2.00;2.00;;;;;21.92;38.60;101330.25;5072714;28;45322;-65
2023/07/17 01:03:38;;;;;;;;;3.25;2.25;;;;;21.90;38.30;101334.84;5074243;28;45283;-65
2023/07/17 01:06:04;;;;;;;;;7.00;5.50;;;;;21.88;38.50;101334.03;5079891;28;48718;-65
2023/07/17 01:08:30;;;;;;;;;6.00;3.25;;;;;21.86;38.39;101335.91;5096023;27;45267;-64
2023/07/17 01:10:56;;;;;;;;;4.25;4.25;;;;;21.85;38.24;101331.53;5067852;28;45437;-65
2023/07/17 01:13:21;;;;;;;;;5.50;3.00;;;;;21.79;38.61;101340.72;5076442;28;45438;-65
2023/07/17 01:15:46;;;;;;;;;0.50;0.50;;;;;21.78;38.48;101343.50;5060918;28;45228;-65
2023/07/17 01:18:13;;;;;;;;;2.25;2.25;;;;;21.77;38.76;101336.41;5059259;28;45237;-65
2023/07/17 01:20:38;;;;;;;;;4.00;4.00;;;;;21.79;39.16;101339.88;5059846;28;45438;-65
2023/07/17 01:23:04;;;;;;;;;2.75;2.75;;;;;21.77;38.80;101339.09;5070632;28;45513;-65
2023/07/17 01:25:30;;;;;;;;;3.00;3.00;;;;;21.74;39.29;101334.75;5059435;28;47186;-65
2023/07/17 01:27:55;;;;;;;;;3.00;3.00;;;;;21.72;39.18;101348.22;5060502;28;45252;-65
2023/07/17 01:30:21;;;;;;;;;3.00;3.00;;;;;21.69;38.90;101347.50;5060976;28;45374;-65
2023/07/17 01:32:46;;;;;;;;;4.00;3.00;;;;;21.66;39.37;101343.19;5060427;28;45319;-65
2023/07/17 01:35:12;;;;;;;;;4.75;4.25;;;;;21.62;39.24;101336.25;5060615;28;45421;-65
2023/07/17 01:37:37;;;;;;;;;2.50;2.50;;;;;21.59;39.38;101337.25;5060442;28;45354;-65
2023/07/17 01:40:03;;;;;;;;;4.25;4.25;;;;;21.56;39.39;101337.44;5060606;28;45386;-65
2023/07/17 01:42:29;;;;;;;;;5.00;4.00;;;;;21.55;39.16;101335.69;5069897;28;45872;-65
2023/07/17 01:44:54;;;;;;;;;8.00;4.00;;;;;21.54;39.03;101341.94;5060333;28;45361;-65
2023/07/17 01:47:19;;;;;;;;;2.00;2.00;;;;;21.52;39.23;101343.84;5059020;28;45812;-65
2023/07/17 01:49:45;;;;;;;;;5.00;4.00;;;;;21.53;39.58;101352.72;5060791;28;45279;-65
2023/07/17 01:52:10;;;;;;;;;4.00;4.00;;;;;21.49;39.82;101346.66;5060418;28;45183;-66
2023/07/17 01:54:36;;;;;;;;;5.00;3.25;;;;;21.48;39.54;101350.28;5059140;28;47021;-65
2023/07/17 01:57:02;;;;;;;;;1.50;1.50;;;;;21.48;40.09;101357.44;5069001;28;45290;-65
2023/07/17 01:59:27;;;;;;;;;3.00;3.00;;;;;21.42;39.88;101354.16;5058973;28;45174;-65
2023/07/17 02:01:52;;;;;;;;;3.00;3.00;;;;;21.39;39.64;101354.28;5060023;28;45230;-65
2023/07/17 02:04:18;;;;;;;;;4.00;3.00;;;;;21.37;39.98;101348.16;5060296;28;45200;-65
2023/07/17 02:06:43;;;;;;;;;4.25;3.00;;;;;21.34;40.33;101350.97;5060108;28;45223;-65
2023/07/17 02:09:08;;;;;;;;;5.00;4.75;;;;;21.32;40.37;101344.88;5066470;28;45288;-65
2023/07/17 02:11:33;;;;;;;;;4.50;3.00;;;;;21.30;40.25;101346.72;5060030;28;45458;-65
2023/07/17 02:13:59;;;;;;;;;3.00;3.00;;;;;21.26;40.35;101348.69;5078325;28;46844;-65
2023/07/17 02:16:24;;;;;;;;;4.50;3.25;;;;;21.22;40.06;101352.47;5080060;28;45414;-65
2023/07/17 02:18:50;;;;;;;;;3.25;3.00;;;;;21.18;40.57;101356.25;5080211;28;45445;-65
2023/07/17 02:21:15;;;;;;;;;5.00;4.00;;;;;21.17;40.59;101356.28;5078711;28;45558;-65
2023/07/17 02:23:40;;;;;;;;;4.00;2.25;;;;;21.13;40.62;101354.72;5080050;28;45298;-64
2023/07/17 02:26:07;;;;;;;;;3.00;3.00;;;;;21.09;40.78;101365.56;5080037;28;45390;-65
2023/07/17 02:28:32;;;;;;;;;4.25;3.50;;;;;21.08;40.60;101366.50;5080124;28;45408;-65
2023/07/17 02:30:57;;;;;;;;;7.50;4.75;;;;;21.02;41.12;101355.22;5078594;28;45474;-65
2023/07/17 02:33:23;;;;;;;;;3.25;3.00;;;;;20.96;40.87;101355.56;5078335;27;47022;-65
2023/07/17 02:35:48;;;;;;;;;8.75;4.50;;;;;20.97;40.56;101358.13;5079868;28;45419;-65
2023/07/17 02:38:14;;;;;;;;;3.00;3.00;;;;;20.94;40.86;101363.63;5080008;28;45248;-65
2023/07/17 02:40:39;;;;;;;;;6.50;4.25;;;;;20.91;40.80;101361.97;5079868;28;45469;-65
2023/07/17 02:43:06;;;;;;;;;5.50;4.00;;;;;20.92;41.23;101370.84;5079670;28;45277;-65
2023/07/17 02:45:31;;;;;;;;;5.25;4.50;;;;;20.89;41.25;101368.31;5078328;28;45265;-65
2023/07/17 02:47:57;;;;;;;;;6.00;3.00;;;;;20.85;41.31;101367.59;5078203;28;45548;-64
2023/07/17 02:50:22;;;;;;;;;6.50;3.00;;;;;20.86;41.11;101376.50;5079642;28;50224;-65
2023/07/17 02:52:47;;;;;;;;;5.00;3.50;;;;;20.80;41.05;101377.63;5078177;28;47045;-65
2023/07/17 02:55:13;;;;;;;;;4.50;3.00;;;;;20.77;41.08;101370.63;5079514;28;45266;-65
2023/07/17 02:57:38;;;;;;;;;4.75;4.50;;;;;20.74;41.13;101376.13;5079773;28;45612;-64
2023/07/17 03:00:08;;;;;;;;;4.50;4.50;;;;;20.74;41.01;101376.13;5079438;28;45539;-65
2023/07/17 03:02:42;;;;;;;;;5.50;3.75;;;;;20.72;41.45;101372.66;5077890;28;46950;-65
2023/07/17 03:05:09;;;;;;;;;5.50;4.00;;;;;20.68;41.43;101380.84;5077963;28;45362;-65
2023/07/17 03:07:43;;;;;;;;;3.75;3.75;;;;;20.67;40.97;101376.47;5078014;28;45308;-64
2023/07/17 03:10:09;;;;;;;;;4.00;4.00;;;;;20.67;41.56;101381.81;5073240;28;45542;-65
2023/07/17 03:12:35;;;;;;;;;4.25;3.00;;;;;20.66;41.12;101380.06;5075806;28;47318;-65
2023/07/17 03:15:02;;;;;;;;;3.00;3.00;;;;;20.60;41.56;101374.06;5077906;27;45225;-64
2023/07/17 03:17:27;;;;;;;;;4.50;3.75;;;;;20.59;41.75;101376.78;5062468;28;45371;-64
2023/07/17 03:19:53;;;;;;;;;6.25;5.00;;;;;20.58;41.37;101385.75;5072429;28;45269;-65
2023/07/17 03:22:18;;;;;;;;;3.25;3.25;;;;;20.55;41.42;101383.22;5060930;28;47988;-64
2023/07/17 03:24:44;;;;;;;;;4.00;3.75;;;;;20.53;41.78;101388.63;5060794;28;46018;-65
2023/07/17 03:27:09;;;;;;;;;8.00;4.75;;;;;20.49;41.74;101389.72;5062530;28;45488;-64
2023/07/17 03:29:35;;;;;;;;;3.00;3.00;;;;;20.45;41.85;101380.97;5062157;28;45453;-64
2023/07/17 03:32:00;;;;;;;;;4.25;3.25;;;;;20.44;41.46;101394.41;5060861;28;48266;-65
2023/07/17 03:34:26;;;;;;;;;4.25;2.25;;;;;20.39;42.09;101388.38;5062166;28;45406;-65
2023/07/17 03:36:52;;;;;;;;;4.00;3.00;;;;;20.35;41.76;101387.69;5062407;28;45296;-65
2023/07/17 03:39:18;;;;;;;;;2.00;2.00;;;;;20.33;42.14;101397.53;5062107;28;45663;-64
2023/07/17 03:41:43;;;;;;;;;4.50;3.00;;;;;20.29;42.21;101401.28;5064532;28;47376;-65
2023/07/17 03:44:08;;;;;;;;;2.00;2.00;;;;;20.28;41.84;101404.91;5061076;28;45451;-64
2023/07/17 03:46:33;;;;;;;;;2.00;2.00;;;;;20.24;42.20;101412.16;5062451;28;45791;-65
2023/07/17 03:48:59;;;;;;;;;3.25;3.00;;;;;20.20;41.87;101404.34;5060872;28;45422;-65
2023/07/17 03:51:24;;;;;;;;;5.00;2.00;;;;;20.19;42.06;101421.28;5061977;28;45320;-65
2023/07/17 03:53:52;;;;;;;;;3.00;3.00;;;;;20.16;42.38;101418.78;5061901;28;45294;-64
2023/07/17 03:56:18;;;;;;;;;1.00;1.00;;;;;20.09;42.10;101415.50;5067638;28;45282;-65
2023/07/17 03:58:43;;;;;;;;;5.00;4.75;;;;;20.06;42.09;101421.84;5082062;28;45165;-64
2023/07/17 04:01:08;;;;;;;;;4.00;4.00;;;;;20.03;42.78;101415.78;5080452;28;48229;-65
2023/07/17 04:03:34;;;;;;;;;2.00;2.00;;;;;19.95;42.31;101414.31;5067422;28;45344;-65
2023/07/17 04:05:59;;;;;;;;;4.75;3.25;;;;;19.94;42.90;101417.03;5061957;28;45299;-64
2023/07/17 04:08:24;;;;;;;;;3.00;2.00;;;;;19.88;42.02;101419.97;5066971;28;45960;-64
2023/07/17 04:10:50;;;;;;;;;4.25;3.00;;;;;19.85;42.50;101422.75;5061895;27;45353;-64
2023/07/17 04:13:15;;;;;;;;;3.00;3.00;;;;;19.80;42.69;101415.78;5073899;28;45276;-64
2023/07/17 04:15:41;;;;;;;;;2.00;2.00;;;;;19.78;42.86;101414.97;5082273;28;45393;-65
2023/07/17 04:18:06;;;;;;;;;4.75;3.50;;;;;19.78;42.45;101416.78;5081657;28;45343;-65
2023/07/17 04:20:32;;;;;;;;;3.25;2.25;;;;;19.75;42.67;101417.78;5080505;28;47126;-65
2023/07/17 04:22:58;;;;;;;;;3.00;3.00;;;;;19.72;42.82;101425.91;5081421;28;45473;-64
2023/07/17 04:25:24;;;;;;;;;3.25;2.25;;;;;19.68;42.28;101428.78;5080610;28;45281;-65
2023/07/17 04:27:49;;;;;;;;;2.50;2.50;;;;;19.64;42.83;101426.22;5081799;28;45261;-64
2023/07/17 04:30:14;;;;;;;;;2.25;2.25;;;;;19.62;42.62;101430.75;5081765;28;45207;-65
2023/07/17 04:32:40;;;;;;;;;4.50;4.00;;;;;19.60;42.77;101427.28;5081607;28;45243;-65
2023/07/17 04:35:06;;;;;;;;;3.00;3.00;;;;;19.59;42.62;101433.53;5081620;28;45219;-64
2023/07/17 04:37:31;;;;;;;;;4.00;4.00;;;;;19.54;42.79;101429.34;5080572;27;45240;-65
2023/07/17 04:39:56;;;;;;;;;5.75;4.00;;;;;19.55;42.86;101431.09;5081126;28;45993;-65
2023/07/17 04:42:22;;;;;;;;;8.25;7.00;;;;;19.53;42.80;101430.28;5081761;28;45205;-64
2023/07/17 04:44:47;;;;;;;;;9.25;4.75;;;;;19.54;43.10;101440.00;5081397;28;45169;-65
2023/07/17 04:47:12;;;;;;;;;3.00;2.50;;;;;19.53;42.91;101438.25;5080118;28;45647;-65
2023/07/17 04:49:38;;;;;;;;;3.25;2.00;;;;;19.49;42.93;101437.53;5060323;28;48179;-65
2023/07/17 04:52:03;;;;;;;;;6.50;2.50;;;;;19.47;43.11;101437.59;5061184;28;45151;-64
2023/07/17 04:54:29;;;;;;;;;3.75;3.75;;;;;19.44;42.66;101436.84;5060996;28;45336;-64
2023/07/17 04:56:54;;;;;;;;;3.00;3.00;;;;;19.44;43.23;101442.16;5060779;28;50650;-64
2023/07/17 04:59:20;;;;;;;;;4.00;3.50;;;;;19.43;42.54;101435.97;5060647;28;46142;-64
2023/07/17 05:01:45;;;;;;;;;3.25;2.00;;;;;19.41;43.09;101435.16;5059579;28;45680;-64
2023/07/17 05:04:11;;;;;;;;;5.00;3.00;;;;;19.40;43.11;101435.25;5060860;28;45440;-64
2023/07/17 05:06:36;;;;;;;;;5.25;3.75;;;;;19.37;43.00;101436.22;5059541;28;45410;-65
2023/07/17 05:09:02;;;;;;;;;2.00;2.00;;;;;19.37;42.79;101449.56;5065250;28;46974;-64
2023/07/17 05:11:27;;;;;;;;;4.00;3.00;;;;;19.34;43.31;101457.66;5060623;28;45269;-64
2023/07/17 05:13:52;;;;;;;;;3.00;2.25;;;;;19.33;43.06;101459.47;5078024;28;45355;-64
2023/07/17 05:16:18;;;;;;;;;4.50;2.00;;;;;19.30;43.11;101450.72;5080833;28;45421;-64
2023/07/17 05:18:43;;;;;;;;;4.25;2.75;;;;;19.29;43.49;101459.63;5080921;28;45232;-65
2023/07/17 05:21:08;;;;;;;;;2.75;2.75;;;;;19.28;43.38;101457.91;5067803;28;45217;-65
2023/07/17 05:23:34;;;;;;;;;5.00;3.00;;;;;19.25;43.44;101460.69;5060787;28;45370;-64
2023/07/17 05:26:01;;;;;;;;;4.00;4.00;;;;;19.22;43.52;101460.78;5067239;28;45285;-65
2023/07/17 05:28:28;;;;;;;;;5.75;4.50;;;;;19.23;43.36;101462.53;5060599;28;45423;-64
2023/07/17 05:30:54;;;;;;;;;4.00;2.00;;;;;19.20;43.15;101460.88;5060483;28;45259;-64
2023/07/17 05:33:21;;;;;;;;;5.25;3.00;;;;;19.19;43.24;101453.78;5060332;28;45418;-64
2023/07/17 05:35:46;;;;;;;;;6.00;4.00;;;;;19.19;43.37;101463.59;5066498;28;45476;-64
2023/07/17 05:38:11;;;;;;;;;2.00;2.00;;;;;19.13;43.46;101452.25;5059972;28;47074;-64
2023/07/17 05:40:39;;;;;;;;;2.25;2.25;;;;;19.18;43.26;101468.03;5060036;28;45429;-64
2023/07/17 05:43:05;;;;;;;;;3.25;3.25;;;;;19.17;43.52;101471.66;5060258;28;45338;-64
2023/07/17 05:45:30;;;;;;;;;2.00;2.00;;;;;19.17;43.27;101480.50;5060343;28;45480;-64
2023/07/17 05:47:55;;;;;;;;;7.50;4.00;;;;;19.16;43.32;101476.09;5059937;28;46025;-64
2023/07/17 05:50:21;;;;;;;;;1.25;1.25;;;;;19.16;43.82;101475.25;5058844;28;45273;-64
2023/07/17 05:52:46;;;;;;;;;6.75;3.00;;;;;19.06;43.55;101464.06;5060181;28;45269;-64
2023/07/17 05:55:12;;;;;;;;;4.75;3.00;;;;;19.11;43.67;101475.41;5060063;28;45457;-64
2023/07/17 05:57:37;;;;;;;;;5.00;4.00;;;;;19.09;43.61;101476.41;5058067;28;47653;-64
2023/07/17 06:00:03;;;;;;;;;3.25;2.75;;;;;19.05;43.52;101472.97;5060046;28;45188;-64
2023/07/17 06:02:29;;;;;;;;;4.25;3.75;;;;;19.04;44.03;101481.88;5060024;28;45247;-64
2023/07/17 06:04:54;;;;;;;;;5.25;4.50;;;;;19.00;44.11;101483.81;5059919;28;45500;-64
2023/07/17 06:07:19;;;;;;;;;2.00;2.00;;;;;19.01;43.95;101492.66;5059713;28;45286;-64
2023/07/17 06:09:45;;;;;;;;;2.50;2.00;;;;;18.99;43.90;101500.72;5076076;28;45451;-64
2023/07/17 06:12:11;;;;;;;;;2.50;2.00;;;;;18.99;44.16;101500.72;5079510;28;45398;-64
2023/07/17 06:14:36;;;;;;;;;3.00;3.00;;;;;18.95;43.88;101492.91;5080259;28;45487;-64
2023/07/17 06:17:01;;;;;;;;;2.00;2.00;;;;;18.97;44.05;101504.38;5078372;27;48095;-65
2023/07/17 06:19:29;;;;;;;;;5.00;3.25;;;;;19.00;43.60;101504.25;5078969;28;45300;-64
2023/07/17 06:21:54;;;;;;;;;4.25;3.00;;;;;19.01;44.08;101508.66;5079867;28;47616;-64
2023/07/17 06:24:20;;;;;;;;;3.00;3.00;;;;;18.99;44.17;101497.19;5080239;28;45581;-64
2023/07/17 06:26:45;;;;;;;;;2.25;1.25;;;;;19.00;44.21;101504.25;5079927;28;46217;-64
2023/07/17 06:29:11;;;;;;;;;1.50;1.00;;;;;19.04;44.48;101505.00;5067704;28;45859;-64
2023/07/17 06:31:37;;;;;;;;;1.00;1.00;;;;;19.03;44.20;101500.59;5059781;28;45201;-64
2023/07/17 06:34:02;;;;;;;;;1.00;1.00;;;;;19.03;44.47;101498.81;5059853;28;45227;-64
2023/07/17 06:36:30;;;;;;;;;1.00;1.00;;;;;19.03;44.19;101498.81;5059623;28;45177;-64
2023/07/17 06:38:55;;;;;;;;;1.00;1.00;;;;;19.04;44.13;101495.19;5058384;28;45367;-64
2023/07/17 06:41:20;;;;;;;;;5.75;1.00;;;;;19.11;44.30;101509.19;5059503;28;45362;-64
2023/07/17 06:43:46;;;;;;;;;3.25;1.50;;;;;19.12;44.25;101508.25;5059780;28;45535;-64
2023/07/17 06:46:12;;;;;;;;;3.00;1.00;;;;;19.14;44.34;101512.59;5072255;28;47908;-65
2023/07/17 06:48:37;;;;;;;;;1.00;1.00;;;;;19.16;44.16;101505.41;5068724;28;45422;-64
2023/07/17 06:51:05;;;;;;;;;2.50;2.50;;;;;19.21;44.44;101510.56;5063286;28;45434;-64
2023/07/17 06:53:31;;;;;;;;;4.00;3.00;;;;;19.25;44.17;101514.84;5063447;28;45501;-64
2023/07/17 06:55:58;;;;;;;;;2.00;1.25;;;;;19.25;44.38;101513.97;5062722;28;45418;-64
2023/07/17 06:58:24;;;;;;;;;1.50;1.50;;;;;19.29;44.66;101516.44;5063321;28;45363;-64
2023/07/17 07:01:00;;;;;;;;;1.50;1.50;;;;;19.33;44.55;101522.53;5061722;28;45390;-64
2023/07/17 07:03:27;;;;;;;;;4.25;3.00;;;;;19.32;44.49;101518.16;5061588;28;45452;-63
2023/07/17 07:05:57;;;;;;;;;2.25;1.50;;;;;19.37;44.57;101524.16;5061374;28;46238;-64
2023/07/17 07:08:24;;;;;;;;;3.00;2.00;;;;;19.42;44.57;101527.53;5068993;28;45177;-64
2023/07/17 07:10:51;;;;;;;;;2.75;2.75;;;;;19.45;44.83;101522.06;5063127;28;45463;-64
2023/07/17 07:13:17;;;;;;;;;3.00;2.00;;;;;19.46;44.65;101522.94;5076453;28;45466;-64
2023/07/17 07:15:42;;;;;;;;;2.25;1.00;;;;;19.49;44.46;101525.47;5081638;28;46059;-64
2023/07/17 07:18:07;;;;;;;;;2.00;2.00;;;;;19.53;44.55;101528.88;5082855;28;45350;-64
2023/07/17 07:20:33;;;;;;;;;2.75;1.75;;;;;19.59;44.45;101528.66;5083004;28;45407;-64
2023/07/17 07:22:58;;;;;;;;;1.25;1.00;;;;;19.62;44.11;101529.41;5082932;28;45613;-64
2023/07/17 07:25:23;;;;;;;;;1.50;1.00;;;;;19.62;44.53;101525.84;5061081;28;58594;-64
2023/07/17 07:27:49;;;;;;;;;1.50;0.50;;;;;19.69;44.10;101532.69;5071264;28;45320;-64
2023/07/17 07:30:14;;;;;;;;;2.75;1.50;;;;;19.74;44.47;101533.38;5062837;28;45264;-64
2023/07/17 07:32:40;;;;;;;;;0.50;0.50;;;;;19.77;44.13;101524.38;5071050;28;45244;-64
2023/07/17 07:35:06;;;;;;;;;2.00;2.00;;;;;19.83;44.21;101531.31;5062356;28;45364;-64
2023/07/17 07:37:31;;;;;;;;;3.00;3.00;;;;;19.88;44.34;101539.97;5071025;28;45474;-64
2023/07/17 07:39:57;;;;;;;;;4.50;4.50;;;;;19.92;43.95;101534.47;5077707;28;45309;-64
2023/07/17 07:42:22;;;;;;;;;3.50;1.75;;;;;19.96;44.23;101544.06;5061106;28;45269;-64
2023/07/17 07:44:48;;;;;;;;;17.75;16.25;;;;;19.98;44.15;101536.00;5077109;28;47980;-64
2023/07/17 07:47:13;;;;;;;;;56.00;46.00;;;;;20.02;43.76;101532.25;5062090;28;45173;-65
2023/07/17 07:49:39;;;;;;;;;10.75;8.75;;;;;20.10;43.81;101545.28;5062487;28;45786;-64
2023/07/17 07:52:04;;;;;;;;;1.50;1.50;;;;;20.14;44.04;101546.91;5062267;28;45469;-64
2023/07/17 07:54:30;;;;;;;;;3.00;1.00;;;;;20.17;44.06;101543.25;5062054;28;45482;-64
2023/07/17 07:56:55;;;;;;;;;3.50;2.00;;;;;20.13;43.65;101546.03;5062224;28;45485;-64
2023/07/17 07:59:20;;;;;;;;;2.25;1.00;;;;;20.22;43.50;101549.25;5061570;28;45757;-64
2023/07/17 08:01:46;;;;;;;;;2.00;1.00;;;;;20.21;43.47;101545.69;5062063;28;45403;-64
2023/07/17 08:04:11;;;;;;;;;3.00;1.00;;;;;20.21;43.12;101542.19;5060706;28;48534;-64
2023/07/17 08:06:36;;;;;;;;;2.00;1.00;;;;;20.29;43.34;101553.41;5062147;28;45293;-64
2023/07/17 08:09:02;;;;;;;;;2.50;1.00;;;;;20.33;43.46;101555.00;5079263;28;45483;-64
2023/07/17 08:11:27;;;;;;;;;1.25;1.25;;;;;20.35;43.43;101553.16;5082372;28;45459;-64
2023/07/17 08:13:53;;;;;;;;;1.25;1.25;;;;;20.40;43.13;101555.59;5081388;28;45507;-64
2023/07/17 08:16:18;;;;;;;;;3.00;1.00;;;;;20.43;42.99;101558.16;5081835;28;51065;-64
2023/07/17 08:18:43;;;;;;;;;1.75;1.00;;;;;20.45;42.77;101559.81;5080851;28;45487;-64
2023/07/17 08:21:09;;;;;;;;;3.00;1.75;;;;;20.48;43.15;101565.94;5080598;28;45474;-64
2023/07/17 08:23:35;;;;;;;;;1.75;1.75;;;;;20.51;42.85;101565.84;5082114;28;46459;-64
2023/07/17 08:26:00;;;;;;;;;1.50;1.50;;;;;20.50;42.73;101567.63;5082184;28;45299;-64
2023/07/17 08:28:25;;;;;;;;;1.75;0.25;;;;;20.56;43.04;101569.16;5080955;27;45433;-64
2023/07/17 08:30:52;;;;;;;;;1.50;1.50;;;;;20.59;42.92;101569.03;5080410;28;45831;-64
2023/07/17 08:33:18;;;;;;;;;2.00;1.25;;;;;20.60;42.60;101570.75;5062020;28;48354;-64
2023/07/17 08:35:43;;;;;;;;;1.50;1.25;;;;;20.64;42.54;101572.38;5060254;28;45950;-64
2023/07/17 08:38:09;;;;;;;;;3.00;1.50;;;;;20.69;42.34;101586.41;5061587;28;45256;-64
2023/07/17 08:40:38;;;;;;;;;0.00;0.00;;;;;20.68;42.49;101563.31;5060209;28;45648;-64
2023/07/17 08:43:06;;;;;;;;;2.00;2.00;;;;;20.74;42.62;101567.53;5061236;28;45546;-65
2023/07/17 08:45:33;;;;;;;;;1.75;1.00;;;;;20.80;42.35;101585.09;5059982;28;45384;-64
2023/07/17 08:48:00;;;;;;;;;3.00;3.00;;;;;20.82;42.62;101570.72;5061181;28;45500;-65
2023/07/17 08:50:26;;;;;;;;;2.50;2.50;;;;;20.88;42.55;101569.56;5060203;28;45434;-64
2023/07/17 08:52:52;;;;;;;;;2.00;2.00;;;;;20.89;42.23;101565.97;5061001;28;45617;-64
2023/07/17 08:55:18;;;;;;;;;2.75;2.00;;;;;20.96;41.98;101571.94;5061053;28;45299;-64
2023/07/17 08:57:45;;;;;;;;;2.00;1.00;;;;;21.00;41.80;101569.03;5061199;28;45520;-64
2023/07/17 09:00:15;;;;;;;;;0.50;0.50;;;;;21.02;42.06;101572.50;5059863;28;45517;-64
2023/07/17 09:02:41;;;;;;;;;1.00;1.00;;;;;21.04;41.88;101573.31;5076130;27;46958;-64
2023/07/17 09:05:07;;;;;;;;;2.00;2.00;;;;;21.07;41.69;101572.31;5060947;28;45365;-64
2023/07/17 09:07:32;;;;;;;;;1.00;1.00;;;;;21.13;41.47;101579.16;5063097;28;45464;-64
2023/07/17 09:10:19;;;;;;;;;1.75;1.50;;;;;21.16;41.50;101584.41;5065781;28;45495;-64
2023/07/17 09:12:53;;;;;;;;;2.00;1.00;;;;;21.19;41.67;101584.25;5069313;28;47563;-64
2023/07/17 09:15:19;;;;;;;;;1.50;1.50;;;;;21.22;41.58;101576.06;5079604;28;45363;-64
2023/07/17 09:17:44;;;;;;;;;2.25;2.25;;;;;21.25;41.61;101574.13;5079709;28;45286;-64
2023/07/17 09:20:11;;;;;;;;;4.75;2.00;;;;;21.28;41.12;101573.13;5079465;28;45606;-64
2023/07/17 09:22:41;;;;;;;;;1.00;1.00;;;;;21.34;41.30;101580.84;5080935;28;45231;-63
2023/07/17 09:25:07;;;;;;;;;1.00;1.00;;;;;21.36;41.45;101578.13;5080569;28;45341;-64
2023/07/17 09:27:47;;;;;;;;;2.00;1.00;;;;;21.42;40.67;101583.16;5081212;28;45394;-63
2023/07/17 09:30:23;;;;;;;;;0.00;0.00;;;;;21.41;40.77;101573.44;5079508;28;45890;-64
2023/07/17 09:32:50;;;;;;;;;3.50;2.00;;;;;21.42;40.71;101570.69;5080455;28;45651;-63
2023/07/17 09:35:20;;;;;;;;;1.25;1.25;;;;;21.51;40.79;101581.88;5079396;28;45445;-63
2023/07/17 09:37:46;;;;;;;;;0.75;0.75;;;;;21.56;40.77;101580.75;5080782;28;45298;-63
2023/07/17 09:40:13;;;;;;;;;1.00;1.00;;;;;21.60;40.73;101570.78;5080599;28;45533;-63
2023/07/17 09:42:41;;;;;;;;;0.50;0.50;;;;;21.67;40.42;101574.03;5080480;28;45255;-63
2023/07/17 09:45:08;;;;;;;;;2.00;1.00;;;;;21.70;40.25;101571.22;5062528;28;46012;-62
2023/07/17 09:47:34;;;;;;;;;2.00;1.00;;;;;21.73;39.90;101573.75;5048607;28;45363;-63
2023/07/17 09:50:01;;;;;;;;;1.00;1.00;;;;;21.78;40.36;101581.56;5079324;27;45530;-63
2023/07/17 09:52:31;;;;;;;;;2.25;1.00;;;;;21.81;40.10;101571.56;5080255;28;46163;-63
2023/07/17 09:55:00;;;;;;;;;1.00;1.00;;;;;21.91;40.62;101590.69;5078925;28;45414;-63
2023/07/17 09:57:30;;;;;;;;;0.25;0.25;;;;;21.96;40.48;101583.34;5080474;28;45233;-63
2023/07/17 10:00:03;;;;;;;;;1.25;1.25;;;;;22.02;40.42;101568.78;5080585;28;45337;-63
2023/07/17 10:02:33;;;;;;;;;0.75;0.75;;;;;22.04;39.69;101575.78;5078653;28;47212;-63
2023/07/17 10:05:00;;;;;;;;;1.00;1.00;;;;;22.12;39.77;101574.53;5080372;28;45318;-63
2023/07/17 10:07:27;;;;;;;;;2.00;0.50;;;;;22.15;39.86;101569.03;5080251;28;45566;-63
2023/07/17 10:09:54;;;;;;;;;1.50;0.50;;;;;22.24;39.77;101563.22;5068145;28;45308;-63
2023/07/17 10:12:19;;;;;;;;;1.00;1.00;;;;;22.31;39.96;101575.34;5063907;28;48433;-65
2023/07/17 10:14:48;;;;;;;;;0.50;0.00;;;;;22.35;39.46;101570.69;5080200;28;45780;-63
2023/07/17 10:17:24;;;;;;;;;0.00;0.00;;;;;22.44;39.23;101577.44;5080209;28;45321;-63
2023/07/17 10:19:49;;;;;;;;;0.75;0.00;;;;;22.51;39.00;101577.03;5078793;28;46423;-63
2023/07/17 10:22:15;;;;;;;;;1.00;1.00;;;;;22.63;39.35;101567.50;5079676;28;45477;-63
2023/07/17 10:24:41;;;;;;;;;0.25;0.25;;;;;22.74;39.14;101572.28;5078841;28;45774;-63
2023/07/17 10:27:07;;;;;;;;;2.00;2.00;;;;;22.86;39.17;101562.75;5080193;28;45180;-63
2023/07/17 10:29:41;;;;;;;;;0.75;0.75;;;;;22.97;39.25;101573.78;5080125;28;45519;-63
2023/07/17 10:32:12;;;;;;;;;0.50;0.25;;;;;23.16;38.88;101567.47;5080111;28;45429;-63
2023/07/17 10:34:51;;;;;;;;;1.00;1.00;;;;;23.35;39.07;101564.63;5079938;28;45490;-63
2023/07/17 10:37:18;;;;;;;;;1.00;1.00;;;;;23.56;39.48;101564.38;5080100;28;45229;-63
2023/07/17 10:39:44;;;;;;;;;1.50;1.00;;;;;23.78;38.62;101572.09;5078607;28;45306;-63
2023/07/17 10:42:09;;;;;;;;;2.00;0.75;;;;;24.08;38.90;101565.94;5078459;28;48471;-64
2023/07/17 10:44:35;;;;;;;;;2.00;1.00;;;;;24.41;39.08;101564.91;5079886;28;45377;-64
2023/07/17 10:47:00;;;;;;;;;3.50;3.50;;;;;24.74;38.94;101570.09;5078529;28;45420;-65
2023/07/17 10:49:25;;;;;;;;;1.00;1.00;;;;;25.07;38.44;101574.34;5078526;28;45656;-62
2023/07/17 10:51:51;;;;;;;;;1.75;1.00;;;;;25.42;37.86;101570.38;5080049;28;47151;-63
2023/07/17 10:54:17;;;;;;;;;1.25;1.25;;;;;25.76;37.78;101579.84;5078386;28;45473;-62
2023/07/17 10:56:47;;;;;;;;;1.00;1.00;;;;;26.06;37.43;101567.16;5078449;28;45399;-63
2023/07/17 10:59:17;;;;;;;;;1.00;1.00;;;;;26.32;37.97;101565.41;5079660;28;45243;-62
2023/07/17 11:01:43;;;;;;;;;1.25;1.00;;;;;26.52;36.85;101560.50;5079541;28;45471;-65
2023/07/17 11:04:09;;;;;;;;;1.00;1.00;;;;;26.70;36.74;101566.44;5079634;28;45393;-62
2023/07/17 11:06:35;;;;;;;;;0.75;0.75;;;;;26.81;36.48;101568.44;5079566;28;45448;-63
2023/07/17 11:09:00;;;;;;;;;1.00;1.00;;;;;26.88;36.28;101573.28;5078292;28;45336;-63
2023/07/17 11:11:26;;;;;;;;;1.50;1.50;;;;;26.97;36.88;101570.88;5078215;28;48017;-63
2023/07/17 11:13:52;;;;;;;;;1.00;1.00;;;;;27.01;36.53;101569.72;5072850;28;45257;-63
2023/07/17 11:16:21;;;;;;;;;1.50;1.00;;;;;27.02;36.03;101577.69;5059414;28;45274;-63
2023/07/17 11:18:51;;;;;;;;;1.00;0.00;;;;;27.03;35.55;101579.41;5057728;28;45502;-63